Xuwen, China
Current Conditions -  °F | °C
As of 6:00 AM on Monday 24 Nov 2014 (Local Time) from ZJHK Reporting Station
Haze Haze  
Wind Chill: 72°   Ceiling: Unl
Heat Index: 72°   Visibility: 3mi
Dew Point: 68°   Wind: 4mph
Humidity: 88%   Direction: 50°NE
Pressure: 29.91"   Gusts: NA
Location:  20.33°N, 110.15°E
Report Text: ZJHK 232200Z 05002MPS 5000 BR NSC 22/20 Q1013 NOSIG
Loading
Personal Weather Stations






























Interactive Weather Map New forecast layout! Learn more

10-Day Weather Forecast

Advertisements
Track Severe Weather on mobile